IBS16KM LEPA-LEMD
Flight info
| Callsign | IBS16KM |
|---|---|
| Flight time | 0h 57m |
| Altitude | 29000 |
| Route | EPAMA N733 PRADO |
| Aircraft | A320/M-SDE3FGHIRWY/LB1 |
Departure
| Time | 2026-05-07 17:30 |
|---|---|
| Airport | Palma de Mallorca Airport (LEPA) |
Arrival
| Time | 2026-05-07 18:27 |
|---|---|
| Airport | Adolfo Suárez Madrid–Barajas Airport (LEMD) |
| Time | Latitude | Longitude | Altitude | Speed | Heading |
|---|---|---|---|---|---|
| 2026-05-07 16:51 | 39.55004 | 2.73731 | 37 ft | 0 kts | 239° |
| 2026-05-07 17:19 | 39.55012 | 2.73749 | 36 ft | 4 kts | 239° |
| 2026-05-07 17:19 | 39.55026 | 2.73779 | 37 ft | 4 kts | 240° |
| 2026-05-07 17:20 | 39.55037 | 2.73804 | 34 ft | 4 kts | 231° |
| 2026-05-07 17:20 | 39.55057 | 2.73823 | 36 ft | 4 kts | 184° |
| 2026-05-07 17:20 | 39.55082 | 2.73817 | 35 ft | 3 kts | 149° |
| 2026-05-07 17:20 | 39.55102 | 2.73801 | 34 ft | 1 kts | 149° |
| 2026-05-07 17:24 | 39.55082 | 2.73817 | 38 ft | 9 kts | 149° |
| 2026-05-07 17:24 | 39.55033 | 2.73855 | 38 ft | 6 kts | 148° |
| 2026-05-07 17:24 | 39.54994 | 2.73886 | 36 ft | 6 kts | 148° |
| 2026-05-07 17:25 | 39.54966 | 2.73908 | 38 ft | 5 kts | 149° |
| 2026-05-07 17:25 | 39.54923 | 2.73941 | 38 ft | 11 kts | 149° |
| 2026-05-07 17:25 | 39.54860 | 2.73989 | 37 ft | 9 kts | 152° |
| 2026-05-07 17:25 | 39.54802 | 2.73969 | 37 ft | 13 kts | 231° |
| 2026-05-07 17:26 | 39.54737 | 2.73956 | 38 ft | 8 kts | 169° |
| 2026-05-07 17:26 | 39.54693 | 2.73921 | 37 ft | 11 kts | 238° |
| 2026-05-07 17:26 | 39.54648 | 2.73829 | 38 ft | 14 kts | 238° |
| 2026-05-07 17:26 | 39.54592 | 2.73708 | 38 ft | 12 kts | 239° |
| 2026-05-07 17:27 | 39.54558 | 2.73678 | 38 ft | 8 kts | 183° |
| 2026-05-07 17:27 | 39.54523 | 2.73696 | 38 ft | 3 kts | 151° |
| 2026-05-07 17:27 | 39.54513 | 2.73703 | 37 ft | 0 kts | 150° |
| 2026-05-07 17:27 | 39.54493 | 2.73718 | 38 ft | 0 kts | 149° |
| 2026-05-07 17:28 | 39.54492 | 2.73718 | 38 ft | 1 kts | 149° |
| 2026-05-07 17:29 | 39.54467 | 2.73738 | 37 ft | 9 kts | 149° |
| 2026-05-07 17:29 | 39.54431 | 2.73803 | 36 ft | 16 kts | 90° |
| 2026-05-07 17:29 | 39.54516 | 2.73996 | 37 ft | 44 kts | 58° |
| 2026-05-07 17:29 | 39.54798 | 2.74590 | 38 ft | 108 kts | 58° |
| 2026-05-07 17:30 | 39.55473 | 2.75998 | 265 ft | 153 kts | 58° |
| 2026-05-07 17:30 | 39.56020 | 2.77169 | 950 ft | 153 kts | 60° |
| 2026-05-07 17:30 | 39.56382 | 2.77990 | 1348 ft | 161 kts | 61° |
| 2026-05-07 17:30 | 39.56977 | 2.79316 | 1717 ft | 179 kts | 60° |
| 2026-05-07 17:31 | 39.57642 | 2.80775 | 2072 ft | 197 kts | 60° |
| 2026-05-07 17:31 | 39.58369 | 2.82374 | 2573 ft | 209 kts | 60° |
| 2026-05-07 17:31 | 39.59106 | 2.83996 | 3312 ft | 213 kts | 60° |
| 2026-05-07 17:31 | 39.59866 | 2.85665 | 4091 ft | 216 kts | 60° |
| 2026-05-07 17:32 | 39.60637 | 2.87356 | 4850 ft | 219 kts | 60° |
| 2026-05-07 17:32 | 39.61420 | 2.89074 | 5579 ft | 223 kts | 59° |
| 2026-05-07 17:32 | 39.62454 | 2.90575 | 6299 ft | 229 kts | 31° |
| 2026-05-07 17:32 | 39.63984 | 2.91122 | 6967 ft | 234 kts | 356° |
| 2026-05-07 17:33 | 39.65514 | 2.90444 | 7657 ft | 238 kts | 322° |
| 2026-05-07 17:33 | 39.66598 | 2.88766 | 8114 ft | 255 kts | 294° |
| 2026-05-07 17:33 | 39.66967 | 2.86444 | 8465 ft | 276 kts | 268° |
| 2026-05-07 17:33 | 39.66878 | 2.83910 | 9123 ft | 284 kts | 266° |
| 2026-05-07 17:34 | 39.66769 | 2.81366 | 9931 ft | 288 kts | 266° |
| 2026-05-07 17:34 | 39.66651 | 2.78699 | 10323 ft | 307 kts | 266° |
| 2026-05-07 17:34 | 39.66525 | 2.75825 | 10578 ft | 329 kts | 266° |
| 2026-05-07 17:34 | 39.66397 | 2.72811 | 11145 ft | 338 kts | 266° |
| 2026-05-07 17:35 | 39.66273 | 2.69751 | 11847 ft | 342 kts | 266° |
| 2026-05-07 17:35 | 39.66148 | 2.66654 | 12572 ft | 346 kts | 266° |
| 2026-05-07 17:35 | 39.66023 | 2.63520 | 13286 ft | 349 kts | 265° |
| 2026-05-07 17:35 | 39.65897 | 2.60353 | 13790 ft | 354 kts | 265° |
| 2026-05-07 17:36 | 39.65772 | 2.57206 | 13916 ft | 354 kts | 265° |
| 2026-05-07 17:36 | 39.65645 | 2.54009 | 14089 ft | 357 kts | 265° |
| 2026-05-07 17:36 | 39.65512 | 2.50785 | 14754 ft | 359 kts | 265° |
| 2026-05-07 17:36 | 39.65376 | 2.47539 | 15414 ft | 362 kts | 265° |
| 2026-05-07 17:37 | 39.65238 | 2.44268 | 16028 ft | 365 kts | 265° |
| 2026-05-07 17:37 | 39.65100 | 2.40969 | 16654 ft | 368 kts | 265° |
| 2026-05-07 17:37 | 39.64961 | 2.37648 | 17272 ft | 370 kts | 265° |
| 2026-05-07 17:37 | 39.64820 | 2.34294 | 17881 ft | 373 kts | 265° |
| 2026-05-07 17:38 | 39.64678 | 2.30965 | 18431 ft | 376 kts | 265° |
| 2026-05-07 17:38 | 39.64532 | 2.27568 | 18991 ft | 378 kts | 264° |
| 2026-05-07 17:38 | 39.64386 | 2.24163 | 19558 ft | 379 kts | 264° |
| 2026-05-07 17:38 | 39.64239 | 2.20749 | 20113 ft | 380 kts | 264° |
| 2026-05-07 17:39 | 39.64089 | 2.17324 | 20651 ft | 381 kts | 264° |
| 2026-05-07 17:39 | 39.63937 | 2.13884 | 21184 ft | 383 kts | 264° |
| 2026-05-07 17:39 | 39.63783 | 2.10429 | 21715 ft | 384 kts | 264° |
| 2026-05-07 17:39 | 39.63628 | 2.06962 | 22215 ft | 386 kts | 263° |
| 2026-05-07 17:40 | 39.63473 | 2.03519 | 22692 ft | 389 kts | 263° |
| 2026-05-07 17:40 | 39.63312 | 2.00006 | 23171 ft | 391 kts | 263° |
| 2026-05-07 17:40 | 39.63147 | 1.96475 | 23611 ft | 394 kts | 263° |
| 2026-05-07 17:40 | 39.62981 | 1.92918 | 23993 ft | 396 kts | 263° |
| 2026-05-07 17:41 | 39.62812 | 1.89339 | 24374 ft | 399 kts | 263° |
| 2026-05-07 17:41 | 39.62643 | 1.85743 | 24753 ft | 401 kts | 263° |
| 2026-05-07 17:41 | 39.62472 | 1.82127 | 25123 ft | 403 kts | 263° |
| 2026-05-07 17:41 | 39.62299 | 1.78490 | 25484 ft | 405 kts | 263° |
| 2026-05-07 17:42 | 39.62123 | 1.74834 | 25839 ft | 407 kts | 263° |
| 2026-05-07 17:42 | 39.61950 | 1.71205 | 26202 ft | 409 kts | 263° |
| 2026-05-07 17:42 | 39.61775 | 1.67512 | 26568 ft | 411 kts | 263° |
| 2026-05-07 17:42 | 39.61599 | 1.63798 | 26922 ft | 414 kts | 263° |
| 2026-05-07 17:43 | 39.61421 | 1.60070 | 27278 ft | 416 kts | 263° |
| 2026-05-07 17:43 | 39.61240 | 1.56316 | 27636 ft | 418 kts | 263° |
| 2026-05-07 17:43 | 39.61054 | 1.52555 | 27993 ft | 419 kts | 263° |
| 2026-05-07 17:43 | 39.60862 | 1.48773 | 28343 ft | 421 kts | 263° |
| 2026-05-07 17:44 | 39.60666 | 1.44976 | 28673 ft | 423 kts | 263° |
| 2026-05-07 17:44 | 39.60471 | 1.41208 | 28891 ft | 425 kts | 263° |
| 2026-05-07 17:44 | 39.60281 | 1.37440 | 28925 ft | 413 kts | 263° |
| 2026-05-07 17:44 | 39.60093 | 1.33756 | 28927 ft | 407 kts | 262° |
| 2026-05-07 17:45 | 39.59688 | 1.26455 | 28937 ft | 406 kts | 262° |
| 2026-05-07 17:45 | 39.59262 | 1.19162 | 28931 ft | 406 kts | 262° |
| 2026-05-07 17:46 | 39.58840 | 1.11870 | 28932 ft | 406 kts | 262° |
| 2026-05-07 17:46 | 39.58425 | 1.04624 | 28943 ft | 406 kts | 262° |
| 2026-05-07 17:47 | 39.58007 | 0.97326 | 28944 ft | 406 kts | 262° |
| 2026-05-07 17:47 | 39.57576 | 0.90033 | 28948 ft | 406 kts | 261° |
| 2026-05-07 17:48 | 39.57143 | 0.82739 | 28947 ft | 406 kts | 261° |
| 2026-05-07 17:48 | 39.56707 | 0.75494 | 28952 ft | 406 kts | 261° |
| 2026-05-07 17:49 | 39.56262 | 0.68208 | 28954 ft | 405 kts | 262° |
| 2026-05-07 17:49 | 39.55815 | 0.60932 | 28959 ft | 405 kts | 262° |
| 2026-05-07 17:50 | 39.55372 | 0.53662 | 28961 ft | 404 kts | 262° |
| 2026-05-07 17:50 | 39.54924 | 0.46453 | 28969 ft | 404 kts | 262° |
| 2026-05-07 17:51 | 39.54465 | 0.39209 | 28970 ft | 403 kts | 262° |
| 2026-05-07 17:51 | 39.54000 | 0.31986 | 28964 ft | 402 kts | 262° |
| 2026-05-07 17:52 | 39.53535 | 0.24777 | 28962 ft | 401 kts | 262° |
| 2026-05-07 17:52 | 39.53066 | 0.17584 | 28966 ft | 401 kts | 262° |
| 2026-05-07 17:53 | 39.52594 | 0.10442 | 28968 ft | 400 kts | 262° |
| 2026-05-07 17:53 | 39.52122 | 0.03274 | 28969 ft | 399 kts | 262° |
| 2026-05-07 17:54 | 39.51647 | -0.03892 | 28966 ft | 399 kts | 262° |
| 2026-05-07 17:54 | 39.51153 | -0.11058 | 28955 ft | 400 kts | 262° |
| 2026-05-07 17:55 | 39.50668 | -0.18177 | 28956 ft | 400 kts | 262° |
| 2026-05-07 17:55 | 39.50174 | -0.25348 | 28961 ft | 399 kts | 262° |
| 2026-05-07 17:56 | 39.49675 | -0.32503 | 28973 ft | 399 kts | 262° |
| 2026-05-07 17:56 | 39.49177 | -0.39654 | 28985 ft | 398 kts | 262° |
| 2026-05-07 17:57 | 39.48992 | -0.45610 | 28989 ft | 401 kts | 272° |
| 2026-05-07 17:57 | 39.49760 | -0.50305 | 28989 ft | 406 kts | 286° |
| 2026-05-07 17:57 | 39.50931 | -0.53653 | 28985 ft | 410 kts | 296° |
| 2026-05-07 17:58 | 39.53780 | -0.60050 | 28982 ft | 410 kts | 296° |
| 2026-05-07 17:58 | 39.56606 | -0.66447 | 28981 ft | 408 kts | 296° |
| 2026-05-07 17:59 | 39.59394 | -0.72793 | 28985 ft | 407 kts | 296° |
| 2026-05-07 17:59 | 39.62198 | -0.79174 | 28982 ft | 407 kts | 296° |
| 2026-05-07 18:00 | 39.64997 | -0.85549 | 28968 ft | 406 kts | 296° |
| 2026-05-07 18:00 | 39.67793 | -0.91916 | 28964 ft | 406 kts | 296° |
| 2026-05-07 18:01 | 39.70551 | -0.98244 | 28966 ft | 405 kts | 296° |
| 2026-05-07 18:01 | 39.73315 | -1.04596 | 28959 ft | 402 kts | 296° |
| 2026-05-07 18:02 | 39.77424 | -1.14043 | 28948 ft | 399 kts | 296° |
| 2026-05-07 18:03 | 39.80156 | -1.20303 | 28948 ft | 398 kts | 296° |
| 2026-05-07 18:03 | 39.82858 | -1.26504 | 28954 ft | 396 kts | 296° |
| 2026-05-07 18:04 | 39.85559 | -1.32732 | 28968 ft | 395 kts | 296° |
| 2026-05-07 18:04 | 39.88246 | -1.38960 | 28978 ft | 394 kts | 296° |
| 2026-05-07 18:05 | 39.90909 | -1.45153 | 28989 ft | 394 kts | 296° |
| 2026-05-07 18:05 | 39.93588 | -1.51389 | 29006 ft | 399 kts | 297° |
| 2026-05-07 18:06 | 39.96345 | -1.57826 | 29004 ft | 410 kts | 297° |
| 2026-05-07 18:06 | 39.99134 | -1.64329 | 29003 ft | 411 kts | 297° |
| 2026-05-07 18:07 | 40.01905 | -1.70808 | 28336 ft | 407 kts | 297° |
| 2026-05-07 18:07 | 40.03268 | -1.73995 | 27580 ft | 407 kts | 297° |
| 2026-05-07 18:07 | 40.04648 | -1.77224 | 26765 ft | 408 kts | 297° |
| 2026-05-07 18:07 | 40.06031 | -1.80468 | 25979 ft | 410 kts | 297° |
| 2026-05-07 18:08 | 40.07418 | -1.83725 | 25206 ft | 411 kts | 296° |
| 2026-05-07 18:08 | 40.08808 | -1.86994 | 24462 ft | 412 kts | 296° |
| 2026-05-07 18:08 | 40.10200 | -1.90268 | 23738 ft | 413 kts | 296° |
| 2026-05-07 18:08 | 40.11596 | -1.93558 | 22905 ft | 415 kts | 296° |
| 2026-05-07 18:09 | 40.12993 | -1.96860 | 22065 ft | 416 kts | 296° |
| 2026-05-07 18:09 | 40.14391 | -2.00171 | 21291 ft | 416 kts | 296° |
| 2026-05-07 18:09 | 40.15756 | -2.03399 | 20931 ft | 406 kts | 296° |
| 2026-05-07 18:09 | 40.17108 | -2.06591 | 20593 ft | 397 kts | 296° |
| 2026-05-07 18:10 | 40.18429 | -2.09711 | 20241 ft | 388 kts | 296° |
| 2026-05-07 18:10 | 40.19723 | -2.12775 | 19850 ft | 381 kts | 296° |
| 2026-05-07 18:10 | 40.20995 | -2.15790 | 19458 ft | 375 kts | 296° |
| 2026-05-07 18:10 | 40.22248 | -2.18760 | 19066 ft | 370 kts | 296° |
| 2026-05-07 18:11 | 40.23481 | -2.21689 | 18691 ft | 365 kts | 297° |
| 2026-05-07 18:11 | 40.24290 | -2.23610 | 18437 ft | 362 kts | 296° |
| 2026-05-07 18:11 | 40.25698 | -2.27572 | 17749 ft | 357 kts | 285° |
| 2026-05-07 18:11 | 40.26169 | -2.30753 | 17160 ft | 356 kts | 273° |
| 2026-05-07 18:12 | 40.26194 | -2.33982 | 16577 ft | 355 kts | 268° |
| 2026-05-07 18:12 | 40.26171 | -2.37218 | 16018 ft | 356 kts | 268° |
| 2026-05-07 18:12 | 40.26155 | -2.40456 | 15462 ft | 356 kts | 269° |
| 2026-05-07 18:12 | 40.26141 | -2.43690 | 15045 ft | 352 kts | 269° |
| 2026-05-07 18:13 | 40.26128 | -2.46843 | 14909 ft | 340 kts | 269° |
| 2026-05-07 18:13 | 40.26115 | -2.49903 | 14717 ft | 331 kts | 269° |
| 2026-05-07 18:13 | 40.26101 | -2.52842 | 14500 ft | 323 kts | 269° |
| 2026-05-07 18:13 | 40.26083 | -2.55758 | 14261 ft | 317 kts | 269° |
| 2026-05-07 18:14 | 40.26062 | -2.58620 | 14020 ft | 312 kts | 268° |
| 2026-05-07 18:14 | 40.26043 | -2.61433 | 13776 ft | 307 kts | 269° |
| 2026-05-07 18:14 | 40.26032 | -2.64205 | 13516 ft | 302 kts | 269° |
| 2026-05-07 18:14 | 40.26027 | -2.66931 | 13249 ft | 297 kts | 269° |
| 2026-05-07 18:15 | 40.26024 | -2.69619 | 12984 ft | 293 kts | 269° |
| 2026-05-07 18:15 | 40.26019 | -2.72269 | 12718 ft | 289 kts | 269° |
| 2026-05-07 18:15 | 40.26013 | -2.74887 | 12457 ft | 285 kts | 269° |
| 2026-05-07 18:15 | 40.26003 | -2.77469 | 12199 ft | 282 kts | 268° |
| 2026-05-07 18:16 | 40.25993 | -2.80015 | 11940 ft | 278 kts | 268° |
| 2026-05-07 18:16 | 40.25984 | -2.82525 | 11688 ft | 275 kts | 269° |
| 2026-05-07 18:16 | 40.25974 | -2.85009 | 11428 ft | 271 kts | 269° |
| 2026-05-07 18:16 | 40.25962 | -2.87466 | 11182 ft | 268 kts | 268° |
| 2026-05-07 18:17 | 40.25949 | -2.89859 | 10936 ft | 265 kts | 268° |
| 2026-05-07 18:17 | 40.25938 | -2.92263 | 10691 ft | 263 kts | 268° |
| 2026-05-07 18:17 | 40.25927 | -2.94643 | 10446 ft | 260 kts | 268° |
| 2026-05-07 18:17 | 40.25917 | -2.96989 | 10201 ft | 257 kts | 268° |
| 2026-05-07 18:18 | 40.25905 | -2.99310 | 9959 ft | 254 kts | 268° |
| 2026-05-07 18:18 | 40.25894 | -3.01613 | 9672 ft | 252 kts | 268° |
| 2026-05-07 18:18 | 40.25881 | -3.03907 | 9355 ft | 251 kts | 268° |
| 2026-05-07 18:18 | 40.25866 | -3.06189 | 9042 ft | 250 kts | 268° |
| 2026-05-07 18:19 | 40.25850 | -3.08449 | 8768 ft | 244 kts | 268° |
| 2026-05-07 18:19 | 40.25836 | -3.10624 | 8510 ft | 234 kts | 267° |
| 2026-05-07 18:19 | 40.25825 | -3.12711 | 8296 ft | 224 kts | 268° |
| 2026-05-07 18:19 | 40.25955 | -3.14667 | 8119 ft | 214 kts | 278° |
| 2026-05-07 18:20 | 40.26209 | -3.16538 | 8022 ft | 206 kts | 278° |
| 2026-05-07 18:20 | 40.26451 | -3.18363 | 7943 ft | 202 kts | 277° |
| 2026-05-07 18:20 | 40.26690 | -3.20174 | 7594 ft | 202 kts | 278° |
| 2026-05-07 18:20 | 40.26928 | -3.21989 | 7250 ft | 202 kts | 277° |
| 2026-05-07 18:21 | 40.27164 | -3.23786 | 7056 ft | 200 kts | 277° |
| 2026-05-07 18:21 | 40.27402 | -3.25594 | 6902 ft | 201 kts | 277° |
| 2026-05-07 18:21 | 40.27640 | -3.27399 | 6683 ft | 202 kts | 277° |
| 2026-05-07 18:21 | 40.27879 | -3.29206 | 6485 ft | 201 kts | 277° |
| 2026-05-07 18:22 | 40.28118 | -3.31009 | 6270 ft | 201 kts | 278° |
| 2026-05-07 18:22 | 40.28279 | -3.32202 | 6129 ft | 201 kts | 280° |
| 2026-05-07 18:22 | 40.28877 | -3.34504 | 5860 ft | 202 kts | 289° |
| 2026-05-07 18:22 | 40.29376 | -3.36220 | 5651 ft | 201 kts | 289° |
| 2026-05-07 18:23 | 40.29876 | -3.37933 | 5464 ft | 200 kts | 289° |
| 2026-05-07 18:23 | 40.30453 | -3.39609 | 5316 ft | 204 kts | 308° |
| 2026-05-07 18:23 | 40.31599 | -3.40666 | 5157 ft | 204 kts | 334° |
| 2026-05-07 18:23 | 40.32792 | -3.41675 | 4954 ft | 204 kts | 322° |
| 2026-05-07 18:24 | 40.33908 | -3.42823 | 4757 ft | 204 kts | 321° |
| 2026-05-07 18:24 | 40.35025 | -3.43964 | 4587 ft | 202 kts | 322° |
| 2026-05-07 18:24 | 40.36133 | -3.45085 | 4445 ft | 205 kts | 321° |
| 2026-05-07 18:24 | 40.37263 | -3.46229 | 4201 ft | 207 kts | 322° |
| 2026-05-07 18:25 | 40.38410 | -3.47389 | 3926 ft | 210 kts | 322° |
| 2026-05-07 18:25 | 40.39567 | -3.48559 | 3662 ft | 207 kts | 322° |
| 2026-05-07 18:25 | 40.40686 | -3.49691 | 3377 ft | 198 kts | 322° |
| 2026-05-07 18:25 | 40.41728 | -3.50747 | 3135 ft | 180 kts | 323° |
| 2026-05-07 18:26 | 40.42673 | -3.51705 | 2864 ft | 164 kts | 323° |
| 2026-05-07 18:26 | 40.43545 | -3.52588 | 2658 ft | 154 kts | 324° |
| 2026-05-07 18:26 | 40.44369 | -3.53423 | 2460 ft | 149 kts | 324° |
| 2026-05-07 18:26 | 40.45179 | -3.54244 | 2264 ft | 145 kts | 323° |
| 2026-05-07 18:27 | 40.45973 | -3.55047 | 2079 ft | 143 kts | 323° |
| 2026-05-07 18:27 | 40.46743 | -3.55829 | 1966 ft | 130 kts | 323° |
| 2026-05-07 18:27 | 40.47305 | -3.56392 | 1986 ft | 73 kts | 322° |
| 2026-05-07 18:27 | 40.47622 | -3.56714 | 1997 ft | 39 kts | 321° |
| 2026-05-07 18:28 | 40.47765 | -3.56947 | 1996 ft | 24 kts | 294° |
| 2026-05-07 18:28 | 40.47801 | -3.57077 | 1999 ft | 12 kts | 265° |
| 2026-05-07 18:28 | 40.47790 | -3.57100 | 2000 ft | 0 kts | 222° |
| 2026-05-07 18:29 | 40.47789 | -3.57102 | 2000 ft | 2 kts | 221° |
| 2026-05-07 18:29 | 40.47749 | -3.57114 | 1999 ft | 13 kts | 166° |
| 2026-05-07 18:29 | 40.47650 | -3.57062 | 1997 ft | 15 kts | 210° |
| 2026-05-07 18:30 | 40.47666 | -3.57152 | 1998 ft | 11 kts | 320° |
| 2026-05-07 18:30 | 40.47726 | -3.57214 | 2000 ft | 11 kts | 323° |
| 2026-05-07 18:30 | 40.47792 | -3.57280 | 2002 ft | 13 kts | 322° |
| 2026-05-07 18:30 | 40.47873 | -3.57363 | 2005 ft | 16 kts | 322° |
| 2026-05-07 18:31 | 40.47982 | -3.57474 | 2003 ft | 24 kts | 322° |
| 2026-05-07 18:31 | 40.48121 | -3.57614 | 1999 ft | 26 kts | 322° |
| 2026-05-07 18:31 | 40.48257 | -3.57753 | 1994 ft | 23 kts | 322° |
| 2026-05-07 18:31 | 40.48384 | -3.57875 | 1991 ft | 23 kts | 326° |
| 2026-05-07 18:32 | 40.48487 | -3.57961 | 1996 ft | 13 kts | 327° |
| 2026-05-07 18:32 | 40.48512 | -3.58055 | 2003 ft | 12 kts | 270° |
| 2026-05-07 18:32 | 40.48511 | -3.58144 | 2006 ft | 7 kts | 270° |
| 2026-05-07 18:32 | 40.48510 | -3.58200 | 2008 ft | 7 kts | 268° |
| 2026-05-07 18:33 | 40.48510 | -3.58260 | 2009 ft | 10 kts | 272° |
| 2026-05-07 18:33 | 40.48511 | -3.58438 | 2017 ft | 16 kts | 269° |
| 2026-05-07 18:33 | 40.48511 | -3.58568 | 2025 ft | 13 kts | 270° |
| 2026-05-07 18:33 | 40.48510 | -3.58674 | 2026 ft | 11 kts | 269° |
| 2026-05-07 18:34 | 40.48533 | -3.58819 | 2028 ft | 23 kts | 325° |
| 2026-05-07 18:34 | 40.48670 | -3.58805 | 2029 ft | 19 kts | 0° |
| 2026-05-07 18:34 | 40.48800 | -3.58811 | 2022 ft | 19 kts | 359° |
| 2026-05-07 18:34 | 40.48921 | -3.58812 | 2022 ft | 17 kts | 360° |
| 2026-05-07 18:35 | 40.49020 | -3.58811 | 2026 ft | 9 kts | 0° |
| 2026-05-07 18:35 | 40.49044 | -3.58848 | 2022 ft | 5 kts | 270° |
| 2026-05-07 18:35 | 40.49043 | -3.58891 | 2022 ft | 5 kts | 269° |
| 2026-05-07 18:35 | 40.49043 | -3.58928 | 2022 ft | 3 kts | 269° |
| 2026-05-07 18:36 | 40.49043 | -3.58956 | 2022 ft | 3 kts | 269° |
| 2026-05-07 18:36 | 40.49042 | -3.58965 | 2022 ft | 0 kts | 269° |
| 2026-05-07 18:37 | 40.49043 | -3.58961 | 2022 ft | 0 kts | 271° |